Terminal Aerodrome Forecast
Issued by NWS

Home | Current Version | Previous Version | Text Only | Print | Product List | Glossary On
Versions: 1 2 3 4 5 6 7 8 9 10 11 12 13 14 15
000
FTUS43 KMKX 181724
TAFUES
TAF
KUES 181724Z 1818/1918 20013G20KT P6SM SKC
     FM190000 20009KT P6SM FEW250 WS020/22040KT
     FM190400 23010KT P6SM FEW250 WS020/24045KT
     FM190600 24008KT P6SM FEW250 WS020/27035KT
     FM190700 25007KT P6SM FEW250
     FM191700 28006KT P6SM SKC=

USA.gov is the U.S. government's official web portal to all federal, state and local government web resources and services.